Arickaree, Colorado
Current Conditions -  °F | °C
As of 11:55 AM on Sunday 21 Dec 2014 (Local Time) from KLIC Reporting Station
Clear Clear  
Wind Chill:   Ceiling: Unl
Heat Index:   Visibility: 10mi
Dew Point: -8°   Wind: 9mph
Humidity: 30%   Direction: 190°S
Pressure: 29.6"   Gusts: NA
Location:  39.6673°N, 103.47°W
Report Text: KLIC 211855Z AUTO 19008KT 10SM CLR 09/M08 A2960 RMK AO2 SLP019 T00891078
Loading
Personal Weather Stations






























Interactive Weather Map New forecast layout! Learn more

10-Day Weather Forecast

Advertisements
Track Severe Weather on mobile